Time;durP1;ratioP1;P1;durP2;ratioP2;P2;SDS_P1;SDS_P2;PMS_P1;PMS_P2;Temp;Humidity;BMP_temperature;BMP_pressure;BME280_temperature;BME280_humidity;BME280_pressure;Samples;Min_cycle;Max_cycle;Signal;HPM_P1;HPM_P2
2024/02/03 00:00:47;;;;;;;18.10;5.00;;;9.00;99.90;;;;;;4959364;29;20027;-80
2024/02/03 00:03:13;;;;;;;24.83;5.20;;;9.00;99.90;;;;;;4957776;29;20031;-80
2024/02/03 00:05:40;;;;;;;21.15;5.85;;;9.10;99.90;;;;;;4957776;29;20024;-79
2024/02/03 00:08:06;;;;;;;16.52;4.60;;;9.10;99.90;;;;;;4959527;29;20086;-81
2024/02/03 00:10:32;;;;;;;15.68;4.82;;;9.10;99.90;;;;;;4958601;29;20030;-80
2024/02/03 00:12:58;;;;;;;16.40;4.45;;;9.10;99.90;;;;;;4957412;29;20027;-80
2024/02/03 00:15:25;;;;;;;18.17;4.25;;;9.10;99.90;;;;;;4959156;29;20114;-80
2024/02/03 00:17:51;;;;;;;21.55;4.65;;;9.10;99.90;;;;;;4957801;29;20016;-80
2024/02/03 00:20:18;;;;;;;15.57;5.28;;;9.10;99.90;;;;;;4957673;29;20456;-80
2024/02/03 00:22:45;;;;;;;16.00;4.25;;;9.10;99.90;;;;;;4959261;29;20051;-80
2024/02/03 00:25:12;;;;;;;17.27;4.03;;;9.20;99.90;;;;;;4958212;29;20038;-80
2024/02/03 00:27:39;;;;;;;14.73;3.25;;;9.10;99.90;;;;;;4958605;29;20078;-80
2024/02/03 00:30:06;;;;;;;11.02;3.35;;;9.10;99.90;;;;;;4957544;29;20486;-80
2024/02/03 00:32:32;;;;;;;13.30;3.30;;;9.00;99.90;;;;;;4957200;29;20051;-80
2024/02/03 00:34:58;;;;;;;14.52;3.95;;;9.10;99.90;;;;;;4958309;29;20030;-80
2024/02/03 00:37:23;;;;;;;12.43;2.90;;;9.10;99.90;;;;;;4955894;29;20074;-79
2024/02/03 00:39:49;;;;;;;15.63;3.53;;;9.10;99.90;;;;;;4957236;29;20050;-80
2024/02/03 00:42:15;;;;;;;7.15;2.60;;;9.10;99.90;;;;;;4955287;28;20030;-79
2024/02/03 00:44:40;;;;;;;18.02;4.38;;;9.00;99.90;;;;;;4957078;29;20027;-79
2024/02/03 00:47:07;;;;;;;12.70;3.05;;;9.10;99.90;;;;;;4957502;29;20062;-80
2024/02/03 00:49:32;;;;;;;13.88;3.45;;;9.10;99.90;;;;;;4957747;29;20031;-80
2024/02/03 00:51:58;;;;;;;13.85;3.03;;;9.10;99.90;;;;;;4956832;29;20026;-79
2024/02/03 00:54:24;;;;;;;10.93;3.67;;;9.10;99.90;;;;;;4956719;29;20103;-79
2024/02/03 00:56:50;;;;;;;14.38;2.65;;;9.00;99.90;;;;;;4957054;29;20124;-78
2024/02/03 00:59:15;;;;;;;15.18;3.05;;;9.00;99.90;;;;;;4957335;29;20055;-79
2024/02/03 01:01:43;;;;;;;14.40;3.47;;;9.00;99.90;;;;;;4955246;29;20395;-78
2024/02/03 01:04:08;;;;;;;17.35;3.30;;;9.00;99.90;;;;;;4956131;29;20027;-78
2024/02/03 01:06:34;;;;;;;8.45;3.05;;;9.00;99.90;;;;;;4955054;29;20086;-78
2024/02/03 01:09:01;;;;;;;15.80;2.38;;;9.10;99.90;;;;;;4956613;29;20113;-78
2024/02/03 01:11:27;;;;;;;12.02;2.63;;;9.10;99.90;;;;;;4954668;29;20623;-77
2024/02/03 01:13:53;;;;;;;12.90;2.25;;;9.10;99.90;;;;;;4956055;29;20030;-78
2024/02/03 01:16:21;;;;;;;12.77;2.28;;;9.10;99.90;;;;;;4954559;29;20055;-77
2024/02/03 01:18:47;;;;;;;11.05;2.08;;;9.10;99.90;;;;;;4956084;29;20046;-78
2024/02/03 01:21:17;;;;;;;12.95;2.45;;;9.10;99.90;;;;;;4954586;29;20495;-78
2024/02/03 01:23:43;;;;;;;15.43;2.55;;;9.10;99.90;;;;;;4954582;29;20031;-78
2024/02/03 01:26:09;;;;;;;14.07;3.67;;;9.10;99.90;;;;;;4954768;29;20057;-78
2024/02/03 01:28:35;;;;;;;10.27;2.03;;;9.20;99.90;;;;;;4954919;29;20035;-78
2024/02/03 01:31:01;;;;;;;7.25;1.95;;;9.20;99.90;;;;;;4956349;29;20030;-77
2024/02/03 01:33:28;;;;;;;13.00;2.95;;;9.10;99.90;;;;;;4956794;29;20027;-78
2024/02/03 01:35:54;;;;;;;14.00;2.03;;;9.20;99.90;;;;;;4955243;29;20031;-78
2024/02/03 01:38:20;;;;;;;8.55;2.50;;;;;;;;;;4956312;29;20054;-79
2024/02/03 01:40:46;;;;;;;11.25;1.85;;;9.30;99.90;;;;;;4956204;28;20556;-78
2024/02/03 01:43:13;;;;;;;6.82;1.92;;;9.30;99.90;;;;;;4956166;29;20030;-78
2024/02/03 01:45:40;;;;;;;6.07;1.60;;;9.30;99.90;;;;;;4955663;29;20026;-79
2024/02/03 01:48:08;;;;;;;22.73;3.53;;;9.30;99.90;;;;;;4954255;29;20023;-79
2024/02/03 01:50:33;;;;;;;12.80;1.73;;;9.30;99.90;;;;;;4955344;29;20042;-78
2024/02/03 01:53:01;;;;;;;13.05;2.42;;;9.30;99.90;;;;;;4957996;28;20027;-79
2024/02/03 01:55:28;;;;;;;6.63;1.08;;;9.30;99.90;;;;;;4959656;29;20030;-78
2024/02/03 01:57:59;;;;;;;6.88;2.05;;;9.40;99.90;;;;;;4958449;29;20075;-79
2024/02/03 02:00:25;;;;;;;9.18;1.23;;;9.40;99.90;;;;;;4958466;29;20443;-79
2024/02/03 02:02:51;;;;;;;16.92;2.20;;;9.40;99.90;;;;;;4959586;29;20123;-79
2024/02/03 02:05:17;;;;;;;10.93;1.33;;;9.40;99.90;;;;;;4958410;29;20503;-79
2024/02/03 02:07:43;;;;;;;10.43;1.13;;;9.40;99.90;;;;;;4957870;29;20023;-78
2024/02/03 02:10:09;;;;;;;11.30;1.65;;;9.40;99.90;;;;;;4958113;29;20035;-78
2024/02/03 02:12:35;;;;;;;8.20;1.13;;;9.50;99.90;;;;;;4958280;29;20396;-79
2024/02/03 02:15:01;;;;;;;9.13;1.17;;;9.50;99.90;;;;;;4959042;29;20031;-79
2024/02/03 02:17:27;;;;;;;7.47;1.40;;;9.40;99.90;;;;;;4959857;29;20034;-79
2024/02/03 02:19:52;;;;;;;8.25;0.98;;;9.40;99.90;;;;;;4959368;29;20486;-79
2024/02/03 02:22:18;;;;;;;20.20;1.67;;;9.50;99.90;;;;;;4958413;29;20026;-79
2024/02/03 02:24:44;;;;;;;10.32;1.05;;;9.50;99.90;;;;;;4959615;29;20023;-79
2024/02/03 02:27:09;;;;;;;13.02;1.67;;;9.50;99.90;;;;;;4959551;29;20051;-78
2024/02/03 02:29:35;;;;;;;11.27;1.90;;;9.40;99.90;;;;;;4958467;29;20054;-79
2024/02/03 02:32:01;;;;;;;10.63;2.45;;;9.40;99.90;;;;;;4959365;29;20066;-79
2024/02/03 02:34:27;;;;;;;8.48;0.98;;;9.40;99.90;;;;;;4958031;29;20028;-79
2024/02/03 02:36:53;;;;;;;15.80;1.40;;;9.40;99.90;;;;;;4959692;29;20023;-79
2024/02/03 02:39:18;;;;;;;11.80;1.67;;;9.40;99.90;;;;;;4959570;29;20086;-78
2024/02/03 02:41:44;;;;;;;14.20;2.30;;;9.40;99.90;;;;;;4958670;29;20395;-78
2024/02/03 02:44:09;;;;;;;10.73;1.05;;;9.40;99.90;;;;;;4959141;29;20023;-79
2024/02/03 02:46:35;;;;;;;8.80;1.17;;;9.30;99.90;;;;;;4957142;29;20187;-79
2024/02/03 02:49:02;;;;;;;8.90;1.65;;;9.30;99.90;;;;;;4957850;29;20153;-78
2024/02/03 02:51:27;;;;;;;7.82;0.68;;;9.40;99.90;;;;;;4958518;29;20082;-79
2024/02/03 02:53:54;;;;;;;6.57;0.88;;;9.30;99.90;;;;;;4959011;29;20019;-79
2024/02/03 02:56:20;;;;;;;7.80;1.23;;;;;;;;;;4958533;29;20059;-79
2024/02/03 02:58:46;;;;;;;3.35;0.82;;;9.40;99.90;;;;;;4958983;28;20042;-79
2024/02/03 03:01:12;;;;;;;12.98;0.90;;;9.50;99.90;;;;;;4956853;29;20019;-79
2024/02/03 03:03:37;;;;;;;9.70;1.00;;;9.50;99.90;;;;;;4956367;28;20065;-78
2024/02/03 03:06:03;;;;;;;5.75;0.20;;;9.50;99.90;;;;;;4956850;29;20101;-79
2024/02/03 03:08:29;;;;;;;4.93;0.35;;;9.60;99.90;;;;;;4957129;29;20492;-79
2024/02/03 03:10:54;;;;;;;7.15;0.50;;;9.60;99.90;;;;;;4958406;29;20038;-79
2024/02/03 03:13:20;;;;;;;5.10;0.30;;;9.60;99.90;;;;;;4957307;29;20042;-78
2024/02/03 03:15:46;;;;;;;4.50;0.40;;;9.70;99.90;;;;;;4956966;29;20121;-79
2024/02/03 03:18:12;;;;;;;8.43;0.50;;;9.70;99.90;;;;;;4957951;29;20428;-78
2024/02/03 03:20:40;;;;;;;6.32;1.25;;;9.70;99.90;;;;;;4958082;29;20155;-79
2024/02/03 03:23:07;;;;;;;1.95;0.20;;;9.70;99.90;;;;;;4957403;29;20027;-79
2024/02/03 03:25:32;;;;;;;9.27;0.82;;;9.60;99.90;;;;;;4958125;29;20114;-78
2024/02/03 03:27:58;;;;;;;16.05;1.65;;;9.70;99.90;;;;;;4958178;29;20106;-78
2024/02/03 03:30:23;;;;;;;6.20;0.57;;;9.80;99.90;;;;;;4957661;29;20027;-79
2024/02/03 03:32:49;;;;;;;5.57;0.93;;;9.80;99.90;;;;;;4956690;29;20023;-78
2024/02/03 03:35:15;;;;;;;4.22;0.20;;;9.90;99.90;;;;;;4956257;29;20019;-79
2024/02/03 03:37:41;;;;;;;10.80;0.85;;;9.90;99.90;;;;;;4957700;29;20476;-78
2024/02/03 03:40:07;;;;;;;5.10;0.68;;;9.90;99.90;;;;;;4957839;29;20093;-79
2024/02/03 03:42:33;;;;;;;6.57;0.28;;;9.90;99.90;;;;;;4956035;29;20066;-78
2024/02/03 03:44:58;;;;;;;5.03;0.73;;;9.90;99.90;;;;;;4957909;29;20023;-79
2024/02/03 03:47:24;;;;;;;7.72;0.22;;;9.90;99.90;;;;;;4957591;29;20115;-79
2024/02/03 03:49:50;;;;;;;5.70;0.82;;;9.90;99.90;;;;;;4956507;29;20059;-79
2024/02/03 03:52:15;;;;;;;7.50;1.02;;;9.90;99.90;;;;;;4956781;29;20125;-78
2024/02/03 03:54:41;;;;;;;7.10;0.22;;;9.90;99.90;;;;;;4956882;29;20030;-79
2024/02/03 03:57:07;;;;;;;6.57;0.28;;;9.90;99.90;;;;;;4958250;29;20058;-78
2024/02/03 03:59:32;;;;;;;14.85;0.63;;;9.90;99.90;;;;;;4957008;29;20372;-78
2024/02/03 04:01:58;;;;;;;5.15;0.28;;;9.90;99.90;;;;;;4958277;29;20438;-78
2024/02/03 04:04:24;;;;;;;7.03;0.45;;;9.90;99.90;;;;;;4958668;29;20038;-79
2024/02/03 04:06:49;;;;;;;2.60;0.00;;;10.00;99.90;;;;;;4958226;29;20380;-78
2024/02/03 04:09:15;;;;;;;4.95;0.40;;;10.00;99.90;;;;;;4957251;29;20114;-78
2024/02/03 04:11:41;;;;;;;10.07;0.52;;;10.00;99.90;;;;;;4956544;29;20479;-78
2024/02/03 04:14:07;;;;;;;7.90;0.65;;;10.00;99.90;;;;;;4957878;29;20039;-78
2024/02/03 04:16:33;;;;;;;5.20;0.25;;;9.90;99.90;;;;;;4955397;28;20031;-78
2024/02/03 04:18:59;;;;;;;6.35;0.40;;;10.00;99.90;;;;;;4957029;29;20095;-78
2024/02/03 04:21:28;;;;;;;5.88;0.10;;;10.00;99.90;;;;;;4957857;29;20023;-78
2024/02/03 04:23:54;;;;;;;9.73;0.45;;;10.00;99.90;;;;;;4956166;29;20538;-79
2024/02/03 04:26:20;;;;;;;2.35;0.00;;;10.00;99.90;;;;;;4956786;29;20023;-78
2024/02/03 04:28:45;;;;;;;8.70;0.17;;;10.00;99.90;;;;;;4955301;29;20057;-79
2024/02/03 04:31:12;;;;;;;6.03;0.60;;;10.00;99.90;;;;;;4956676;29;20027;-78
2024/02/03 04:33:38;;;;;;;4.82;0.63;;;10.00;99.90;;;;;;4957443;29;20030;-78
2024/02/03 04:36:04;;;;;;;5.97;0.80;;;10.00;99.90;;;;;;4955292;29;20019;-78
2024/02/03 04:38:30;;;;;;;11.32;1.38;;;10.00;99.90;;;;;;4955261;29;20023;-78
2024/02/03 04:40:56;;;;;;;8.27;0.40;;;10.10;99.90;;;;;;4956295;29;20042;-78
2024/02/03 04:43:22;;;;;;;4.00;0.52;;;10.10;99.90;;;;;;4955305;29;20019;-78
2024/02/03 04:45:47;;;;;;;5.90;0.47;;;10.10;99.90;;;;;;4955084;29;20020;-78
2024/02/03 04:48:13;;;;;;;2.88;0.10;;;10.10;99.90;;;;;;4956393;29;20089;-78
2024/02/03 04:50:38;;;;;;;4.80;0.20;;;10.10;99.90;;;;;;4955263;29;20067;-78
2024/02/03 04:53:04;;;;;;;4.40;0.17;;;10.10;99.90;;;;;;4956559;29;20027;-78
2024/02/03 04:55:30;;;;;;;3.50;0.05;;;10.10;99.90;;;;;;4956638;29;20019;-78
2024/02/03 04:57:56;;;;;;;3.85;0.20;;;10.00;99.90;;;;;;4954933;29;20066;-78
2024/02/03 05:00:22;;;;;;;7.55;0.22;;;10.10;99.90;;;;;;4955968;29;20534;-78
2024/02/03 05:02:47;;;;;;;6.18;0.08;;;10.10;99.90;;;;;;4955693;29;20372;-78
2024/02/03 05:05:13;;;;;;;3.38;0.30;;;10.10;99.90;;;;;;4955251;29;20031;-78
2024/02/03 05:07:39;;;;;;;6.00;0.30;;;10.10;99.90;;;;;;4956685;29;20024;-78
2024/02/03 05:10:05;;;;;;;7.05;0.35;;;10.10;99.90;;;;;;4955266;29;20518;-78
2024/02/03 05:12:33;;;;;;;4.97;0.10;;;10.10;99.90;;;;;;4956387;29;20041;-78
2024/02/03 05:14:59;;;;;;;4.35;0.30;;;10.10;99.90;;;;;;4955884;29;20444;-78
2024/02/03 05:17:25;;;;;;;4.68;0.17;;;10.10;99.90;;;;;;4955594;29;20051;-78
2024/02/03 05:19:51;;;;;;;9.88;0.50;;;10.10;99.90;;;;;;4956989;29;20376;-78
2024/02/03 05:22:16;;;;;;;7.20;0.10;;;10.10;99.90;;;;;;4954882;29;20038;-78
2024/02/03 05:24:42;;;;;;;1.75;0.20;;;10.10;99.90;;;;;;4956073;29;20039;-78
2024/02/03 05:27:07;;;;;;;4.47;0.20;;;10.10;99.90;;;;;;4955142;28;20102;-78
2024/02/03 05:29:33;;;;;;;4.00;0.10;;;10.10;99.90;;;;;;4959779;29;20031;-78
2024/02/03 05:31:59;;;;;;;3.67;0.65;;;10.20;99.90;;;;;;4959000;29;20023;-78
2024/02/03 05:34:24;;;;;;;5.55;0.10;;;10.10;99.90;;;;;;4960330;29;20108;-78
2024/02/03 05:36:50;;;;;;;4.00;0.10;;;10.10;99.90;;;;;;4960476;29;20031;-78
2024/02/03 05:39:16;;;;;;;5.38;0.82;;;10.00;99.90;;;;;;4959621;29;20027;-78
2024/02/03 05:41:41;;;;;;;7.43;0.10;;;10.20;99.90;;;;;;4960889;29;20098;-78
2024/02/03 05:44:07;;;;;;;5.43;0.43;;;10.20;99.90;;;;;;4958586;29;20019;-79
2024/02/03 05:46:33;;;;;;;5.10;0.73;;;10.20;99.90;;;;;;4959693;29;20031;-79
2024/02/03 05:48:59;;;;;;;7.32;1.33;;;10.10;99.90;;;;;;4959512;29;20039;-79
2024/02/03 05:51:24;;;;;;;5.55;0.10;;;10.10;99.90;;;;;;4960017;29;20027;-78
2024/02/03 05:53:52;;;;;;;4.55;0.28;;;10.20;99.90;;;;;;4959986;29;20074;-78
2024/02/03 05:56:18;;;;;;;3.70;0.63;;;10.20;99.90;;;;;;4958428;29;20019;-78
2024/02/03 05:58:44;;;;;;;5.20;1.10;;;10.10;99.90;;;;;;4960569;29;20119;-78
2024/02/03 06:01:09;;;;;;;9.85;1.05;;;10.10;99.90;;;;;;4960148;29;20020;-78
2024/02/03 06:03:35;;;;;;;2.63;0.17;;;10.10;99.90;;;;;;4959488;29;20023;-78
2024/02/03 06:06:01;;;;;;;7.30;0.80;;;10.10;99.90;;;;;;4959580;29;20061;-78
2024/02/03 06:08:26;;;;;;;9.00;0.75;;;10.10;99.90;;;;;;4958951;29;20020;-78
2024/02/03 06:10:52;;;;;;;8.43;0.45;;;10.10;99.90;;;;;;4958138;29;20499;-78
2024/02/03 06:13:20;;;;;;;4.93;0.13;;;10.10;99.90;;;;;;4959217;29;20023;-78
2024/02/03 06:15:47;;;;;;;5.82;0.20;;;10.10;99.90;;;;;;4959510;29;20387;-78
2024/02/03 06:18:13;;;;;;;3.22;0.17;;;10.10;99.90;;;;;;4958208;29;20019;-79
2024/02/03 06:20:38;;;;;;;4.78;0.50;;;10.10;99.90;;;;;;4959431;29;20031;-78
2024/02/03 06:23:04;;;;;;;5.63;0.30;;;10.10;99.90;;;;;;4957918;29;20027;-79
2024/02/03 06:25:30;;;;;;;4.80;0.52;;;10.10;99.90;;;;;;4957437;29;20023;-79
2024/02/03 06:27:55;;;;;;;3.33;0.20;;;10.10;99.90;;;;;;4957251;29;20027;-78
2024/02/03 06:30:21;;;;;;;9.10;0.20;;;10.00;99.90;;;;;;4957882;29;20027;-78
2024/02/03 06:32:47;;;;;;;4.55;0.50;;;10.10;99.90;;;;;;4958888;29;20067;-79
2024/02/03 06:35:12;;;;;;;6.50;0.30;;;10.10;99.90;;;;;;4959098;29;20122;-80
2024/02/03 06:37:38;;;;;;;9.38;1.80;;;10.10;99.90;;;;;;4961131;29;20499;-80
2024/02/03 06:40:04;;;;;;;8.60;0.80;;;10.10;99.90;;;;;;4964108;28;20443;-80
2024/02/03 06:42:30;;;;;;;10.40;1.10;;;10.20;99.90;;;;;;4964235;29;20035;-80
2024/02/03 06:44:56;;;;;;;5.07;0.85;;;10.10;99.90;;;;;;4962660;29;20065;-79
2024/02/03 06:47:21;;;;;;;4.90;0.45;;;10.10;99.90;;;;;;4962233;29;20117;-77
2024/02/03 06:49:47;;;;;;;17.58;1.38;;;10.10;99.90;;;;;;4961375;29;20034;-77
2024/02/03 06:52:15;;;;;;;6.63;1.25;;;10.00;99.90;;;;;;4963025;29;20096;-78
2024/02/03 06:54:41;;;;;;;11.82;1.10;;;10.00;99.90;;;;;;4961333;29;20023;-77
2024/02/03 06:57:06;;;;;;;5.70;0.50;;;10.00;99.90;;;;;;4961530;29;20060;-77
2024/02/03 06:59:32;;;;;;;8.85;1.40;;;10.00;99.90;;;;;;4960945;29;20024;-77
2024/02/03 07:01:57;;;;;;;9.48;1.33;;;10.00;99.90;;;;;;4962761;29;20042;-80
2024/02/03 07:04:23;;;;;;;6.93;1.17;;;10.00;99.90;;;;;;4961584;29;20403;-79
2024/02/03 07:06:49;;;;;;;8.30;0.80;;;10.00;99.90;;;;;;4962790;29;20032;-79
2024/02/03 07:09:14;;;;;;;4.65;0.30;;;10.00;99.90;;;;;;4963598;29;20467;-79
2024/02/03 07:11:40;;;;;;;6.13;0.60;;;10.20;99.90;;;;;;4963848;29;20091;-79
2024/02/03 07:14:06;;;;;;;13.50;2.22;;;10.00;99.90;;;;;;4961680;29;20035;-79
2024/02/03 07:16:32;;;;;;;6.35;0.65;;;10.00;99.90;;;;;;4963481;29;20034;-79
2024/02/03 07:18:57;;;;;;;11.98;1.30;;;10.00;99.90;;;;;;4961735;29;20047;-79
2024/02/03 07:21:23;;;;;;;10.85;1.15;;;10.00;99.90;;;;;;4962256;29;20027;-80
2024/02/03 07:23:52;;;;;;;5.15;1.20;;;10.00;99.90;;;;;;4963278;29;20031;-79
2024/02/03 07:26:17;;;;;;;;;;;10.00;99.90;;;;;;4963204;29;20054;-79
2024/02/03 07:28:43;;;;;;;13.50;1.50;;;10.00;99.90;;;;;;4961841;29;19890;-79
2024/02/03 07:31:09;;;;;;;10.07;1.15;;;9.90;99.90;;;;;;4961530;29;20491;-79
2024/02/03 07:33:35;;;;;;;16.13;1.75;;;;;;;;;;4960902;29;20027;-78
2024/02/03 07:36:01;;;;;;;3.80;0.40;;;10.00;99.90;;;;;;4962547;28;20110;-79
2024/02/03 07:38:26;;;;;;;8.35;1.27;;;10.00;99.90;;;;;;4963220;29;20159;-78
2024/02/03 07:40:52;;;;;;;7.50;0.55;;;10.00;99.90;;;;;;4961368;29;20051;-79
2024/02/03 07:43:18;;;;;;;5.65;0.30;;;9.90;99.90;;;;;;4962790;29;20023;-79
2024/02/03 07:45:44;;;;;;;10.75;0.75;;;10.00;99.90;;;;;;4962180;29;20471;-79
2024/02/03 07:48:09;;;;;;;4.88;0.40;;;10.00;99.90;;;;;;4963053;29;20138;-80
2024/02/03 07:50:35;;;;;;;7.60;0.70;;;10.10;99.90;;;;;;4961935;28;20344;-80
2024/02/03 07:53:00;;;;;;;7.88;0.90;;;10.00;99.90;;;;;;4962633;29;20031;-80
2024/02/03 07:55:28;;;;;;;10.20;0.40;;;10.00;99.90;;;;;;4961413;29;20028;-80
2024/02/03 07:57:53;;;;;;;3.92;0.93;;;10.10;99.90;;;;;;4962648;29;20017;-79
2024/02/03 08:00:20;;;;;;;6.60;0.80;;;10.00;99.90;;;;;;4961443;29;20082;-80
2024/02/03 08:02:46;;;;;;;9.77;1.38;;;10.00;99.90;;;;;;4960634;29;20032;-77
2024/02/03 08:05:12;;;;;;;5.13;0.43;;;10.10;99.90;;;;;;4962176;29;20054;-79
2024/02/03 08:07:39;;;;;;;3.90;0.52;;;;;;;;;;4963105;29;20027;-81
2024/02/03 08:10:06;;;;;;;18.70;1.17;;;10.00;99.90;;;;;;4961874;29;20063;-80
2024/02/03 08:12:31;;;;;;;8.70;0.77;;;10.10;99.90;;;;;;4964087;29;20051;-81
2024/02/03 08:14:57;;;;;;;7.78;0.50;;;10.10;99.90;;;;;;4967369;29;20450;-80
2024/02/03 08:17:22;;;;;;;7.72;0.93;;;10.00;99.90;;;;;;4965919;29;20019;-80
2024/02/03 08:19:48;;;;;;;7.47;0.45;;;11.10;99.90;;;;;;4962477;29;20030;-79
2024/02/03 08:22:14;;;;;;;4.60;0.65;;;10.10;99.90;;;;;;4959317;29;20024;-79
2024/02/03 08:24:39;;;;;;;9.60;1.20;;;10.10;99.90;;;;;;4961035;29;20403;-79
2024/02/03 08:27:05;;;;;;;16.92;1.35;;;10.20;99.90;;;;;;4961431;29;20031;-80
2024/02/03 08:29:31;;;;;;;14.88;0.82;;;10.20;99.90;;;;;;4958566;29;20483;-80
2024/02/03 08:31:57;;;;;;;5.95;1.02;;;10.20;99.90;;;;;;4958767;29;20043;-80
2024/02/03 08:34:23;;;;;;;7.35;0.50;;;10.20;99.90;;;;;;4958792;29;20039;-81
2024/02/03 08:36:48;;;;;;;6.55;0.30;;;10.20;99.90;;;;;;4958542;29;20015;-80
2024/02/03 08:39:14;;;;;;;7.55;1.25;;;10.20;99.90;;;;;;4957922;29;20023;-80
2024/02/03 08:41:40;;;;;;;13.73;1.30;;;10.30;99.90;;;;;;4959059;29;20082;-80
2024/02/03 08:44:06;;;;;;;7.70;0.52;;;10.20;99.90;;;;;;4959807;29;20031;-80
2024/02/03 08:46:34;;;;;;;9.32;0.77;;;10.20;99.90;;;;;;4958233;29;20491;-80
2024/02/03 08:49:00;;;;;;;5.18;0.65;;;10.30;99.90;;;;;;4957652;29;20067;-80
2024/02/03 08:51:25;;;;;;;8.43;0.95;;;10.20;99.90;;;;;;4957939;29;20023;-80
2024/02/03 08:53:51;;;;;;;7.72;0.35;;;10.20;99.90;;;;;;4958156;29;20061;-80
2024/02/03 08:56:19;;;;;;;4.43;0.43;;;10.30;99.90;;;;;;4957925;29;20483;-81
2024/02/03 08:58:45;;;;;;;9.68;0.60;;;10.20;99.90;;;;;;4959171;29;20019;-80
2024/02/03 09:01:10;;;;;;;14.40;1.33;;;10.30;99.90;;;;;;4957499;28;20086;-80
2024/02/03 09:03:36;;;;;;;7.32;0.30;;;10.30;99.90;;;;;;4957326;29;20039;-80
2024/02/03 09:06:02;;;;;;;7.80;0.85;;;10.40;99.90;;;;;;4959161;29;20034;-80
2024/02/03 09:08:28;;;;;;;4.03;0.03;;;10.40;99.90;;;;;;4957502;29;20447;-80
2024/02/03 09:10:54;;;;;;;9.70;1.15;;;10.50;99.90;;;;;;4959057;29;20050;-80
2024/02/03 09:13:19;;;;;;;10.10;0.38;;;10.50;99.90;;;;;;4959315;29;20098;-80
2024/02/03 09:15:45;;;;;;;5.90;0.22;;;10.60;99.90;;;;;;4958327;29;20031;-80
2024/02/03 09:18:11;;;;;;;7.85;0.35;;;10.50;99.90;;;;;;4957350;29;20122;-80
2024/02/03 09:20:37;;;;;;;5.20;0.30;;;10.50;99.90;;;;;;4957976;29;20035;-80
2024/02/03 09:23:03;;;;;;;2.25;0.38;;;10.60;99.90;;;;;;4957859;29;20053;-80
2024/02/03 09:25:28;;;;;;;7.38;0.57;;;10.60;99.90;;;;;;4957876;29;20030;-80
2024/02/03 09:27:54;;;;;;;10.18;0.38;;;10.70;99.90;;;;;;4957787;29;20024;-80
2024/02/03 09:30:20;;;;;;;4.35;0.22;;;10.70;99.90;;;;;;4958109;29;20054;-80
2024/02/03 09:32:52;;;;;;;6.55;0.57;;;10.80;99.90;;;;;;4958349;29;20020;-82
2024/02/03 09:35:18;;;;;;;5.13;0.45;;;10.80;99.90;;;;;;4957866;29;20118;-81
2024/02/03 09:37:44;;;;;;;10.18;0.60;;;10.90;99.90;;;;;;4957338;29;20055;-81
2024/02/03 09:40:19;;;;;;;6.95;0.22;;;10.90;99.90;;;;;;4958907;28;20032;-81
2024/02/03 09:42:46;;;;;;;6.72;0.22;;;11.00;99.90;;;;;;4957264;29;20134;-80
2024/02/03 09:45:12;;;;;;;7.82;1.00;;;11.40;99.90;;;;;;4957241;29;20058;-80
2024/02/03 09:47:37;;;;;;;10.80;1.60;;;11.00;99.90;;;;;;4958576;29;20028;-80
2024/02/03 09:50:05;;;;;;;3.42;0.20;;;10.90;99.90;;;;;;4958872;29;20055;-80
2024/02/03 09:52:32;;;;;;;11.73;1.23;;;11.00;99.90;;;;;;4957592;29;20031;-80
2024/02/03 09:54:58;;;;;;;8.70;0.10;;;11.00;99.90;;;;;;4957636;29;20023;-80
2024/02/03 09:57:23;;;;;;;4.43;0.28;;;10.90;99.90;;;;;;4957255;29;20391;-80
2024/02/03 09:59:50;;;;;;;4.78;0.20;;;10.90;99.90;;;;;;4957134;29;20027;-80
2024/02/03 10:02:16;;;;;;;4.38;0.38;;;10.90;99.90;;;;;;4958689;29;20031;-80
2024/02/03 10:04:45;;;;;;;5.63;0.50;;;10.90;99.90;;;;;;4957350;29;20038;-80
2024/02/03 10:07:11;;;;;;;15.77;0.85;;;11.00;99.90;;;;;;4957257;29;20074;-80
2024/02/03 10:09:37;;;;;;;10.45;0.03;;;11.00;99.90;;;;;;4957247;29;20038;-80
2024/02/03 10:12:03;;;;;;;3.47;0.20;;;11.00;99.90;;;;;;4957660;29;20027;-81
2024/02/03 10:14:30;;;;;;;5.00;0.60;;;11.00;99.90;;;;;;4961339;28;20127;-80
2024/02/03 10:16:55;;;;;;;6.07;0.20;;;11.00;99.90;;;;;;4961346;29;20475;-80
2024/02/03 10:19:21;;;;;;;5.57;0.30;;;11.00;99.90;;;;;;4961026;29;20034;-80
2024/02/03 10:21:47;;;;;;;6.10;0.05;;;11.00;99.90;;;;;;4962060;29;20046;-81
2024/02/03 10:24:21;;;;;;;4.40;0.20;;;11.00;99.90;;;;;;4960582;29;20123;-80
2024/02/03 10:27:00;;;;;;;14.85;0.75;;;10.90;99.90;;;;;;4961102;29;20034;-80
2024/02/03 10:29:26;;;;;;;6.13;0.82;;;10.90;99.90;;;;;;4960454;29;20067;-80
2024/02/03 10:31:51;;;;;;;0.88;0.20;;;11.00;99.90;;;;;;4960265;29;20020;-81
2024/02/03 10:34:18;;;;;;;8.95;0.20;;;11.00;99.90;;;;;;4959979;29;20480;-80
2024/02/03 10:36:43;;;;;;;5.70;0.52;;;11.00;99.90;;;;;;4959871;29;20391;-81
2024/02/03 10:39:10;;;;;;;6.75;0.08;;;11.00;99.90;;;;;;4960779;29;20027;-80
2024/02/03 10:41:43;;;;;;;4.78;0.30;;;11.00;99.90;;;;;;4960274;29;20031;-80
2024/02/03 10:44:10;;;;;;;2.80;0.00;;;11.10;99.90;;;;;;4960873;29;20091;-81
2024/02/03 10:46:42;;;;;;;6.25;0.15;;;11.10;99.90;;;;;;4959715;29;20273;-82
2024/02/03 10:49:16;;;;;;;8.38;0.80;;;11.10;99.90;;;;;;4960123;29;20066;-81
2024/02/03 10:51:46;;;;;;;8.00;0.63;;;11.10;99.90;;;;;;4960169;29;20027;-80
2024/02/03 10:54:17;;;;;;;4.95;0.47;;;11.10;99.90;;;;;;4959760;29;20055;-80
2024/02/03 10:56:45;;;;;;;4.30;1.08;;;11.20;99.90;;;;;;4959717;29;20023;-79
2024/02/03 10:59:18;;;;;;;4.82;0.40;;;11.20;99.90;;;;;;4959970;29;20082;-80
2024/02/03 11:01:43;;;;;;;4.38;0.03;;;11.20;99.90;;;;;;4961334;29;20027;-81
2024/02/03 11:04:13;;;;;;;3.75;0.15;;;11.20;99.90;;;;;;4960548;29;20033;-80
2024/02/03 11:06:39;;;;;;;4.18;0.10;;;11.30;99.90;;;;;;4959715;29;20029;-81
2024/02/03 11:09:13;;;;;;;4.28;0.00;;;11.20;99.90;;;;;;4960985;29;20031;-81
2024/02/03 11:11:44;;;;;;;6.93;0.30;;;11.20;99.90;;;;;;4959942;29;20030;-81
2024/02/03 11:14:27;;;;;;;6.25;0.28;;;11.30;99.90;;;;;;4958969;29;20031;-80
2024/02/03 11:16:58;;;;;;;7.53;0.30;;;11.20;99.90;;;;;;4959321;29;20031;-81
2024/02/03 11:19:28;;;;;;;6.82;0.40;;;11.10;99.90;;;;;;4959176;29;20023;-81
2024/02/03 11:21:58;;;;;;;4.55;0.13;;;11.10;99.90;;;;;;4958982;29;20081;-80
2024/02/03 11:24:25;;;;;;;3.38;0.10;;;11.10;99.90;;;;;;4960006;28;20034;-81
2024/02/03 11:27:14;;;;;;;3.72;0.10;;;11.10;99.90;;;;;;4959544;29;20034;-82
2024/02/03 11:29:40;;;;;;;5.60;0.10;;;11.00;99.90;;;;;;4959575;29;20031;-81
2024/02/03 11:32:08;;;;;;;6.10;0.20;;;11.10;99.90;;;;;;4958701;29;20123;-81
2024/02/03 11:34:35;;;;;;;6.57;0.52;;;11.10;99.90;;;;;;4960710;29;20032;-81
2024/02/03 11:37:02;;;;;;;6.28;0.25;;;11.10;99.90;;;;;;4959805;29;20023;-80
2024/02/03 11:39:34;;;;;;;6.63;0.65;;;11.10;99.90;;;;;;4961047;29;20027;-80
2024/02/03 11:42:00;;;;;;;3.38;0.20;;;11.10;99.90;;;;;;4959811;29;20098;-80
2024/02/03 11:44:36;;;;;;;4.50;0.10;;;11.20;99.90;;;;;;4959441;29;20395;-80
2024/02/03 11:47:03;;;;;;;3.03;0.45;;;11.30;99.90;;;;;;4959058;29;20020;-81
2024/02/03 11:49:31;;;;;;;7.25;0.45;;;11.30;99.90;;;;;;4958677;29;20093;-79
2024/02/03 11:52:01;;;;;;;5.45;0.20;;;11.40;99.90;;;;;;4958418;29;20023;-81
2024/02/03 11:54:28;;;;;;;1.95;0.50;;;11.40;99.90;;;;;;4960538;29;20027;-80
2024/02/03 11:56:54;;;;;;;8.43;0.15;;;11.40;99.90;;;;;;4958248;29;20056;-82
2024/02/03 11:59:30;;;;;;;2.15;0.15;;;11.30;99.90;;;;;;4958148;29;20051;-81
2024/02/03 12:01:56;;;;;;;1.95;0.25;;;11.30;99.90;;;;;;4957712;29;20051;-79
2024/02/03 12:04:23;;;;;;;4.63;0.95;;;11.30;99.90;;;;;;4957025;29;20033;-79
2024/02/03 12:06:50;;;;;;;7.00;0.95;;;11.20;99.90;;;;;;4958398;29;20031;-81
2024/02/03 12:09:18;;;;;;;4.25;0.20;;;11.20;99.90;;;;;;4959468;29;20094;-81
2024/02/03 12:11:45;;;;;;;9.70;0.75;;;11.10;99.90;;;;;;4958304;29;20023;-82
2024/02/03 12:14:12;;;;;;;4.45;0.75;;;11.10;99.90;;;;;;4958124;29;20038;-81
2024/02/03 12:16:40;;;;;;;5.07;0.32;;;11.10;99.90;;;;;;4958830;29;20083;-81
2024/02/03 12:19:08;;;;;;;3.33;0.20;;;11.10;99.90;;;;;;4958222;29;20063;-81
2024/02/03 12:21:34;;;;;;;6.07;1.15;;;11.00;99.90;;;;;;4958014;29;20478;-82
2024/02/03 12:24:00;;;;;;;6.90;0.57;;;10.90;99.90;;;;;;4959754;29;20028;-82
2024/02/03 12:26:26;;;;;;;6.22;0.95;;;10.90;99.90;;;;;;4957701;29;20049;-82
2024/02/03 12:28:52;;;;;;;2.90;0.52;;;10.90;99.90;;;;;;4958022;29;20023;-81
2024/02/03 12:31:18;;;;;;;9.05;1.50;;;;;;;;;;4959612;29;20098;-81
2024/02/03 12:33:44;;;;;;;6.20;1.00;;;10.90;99.90;;;;;;4958486;29;20042;-80
2024/02/03 12:36:11;;;;;;;8.48;1.88;;;10.90;99.90;;;;;;4959742;28;20015;-81
2024/02/03 12:38:37;;;;;;;4.55;0.75;;;10.90;99.90;;;;;;4957825;29;20035;-80
2024/02/03 12:41:03;;;;;;;6.85;1.02;;;11.00;99.90;;;;;;4959128;29;20019;-82
2024/02/03 12:43:29;;;;;;;2.78;0.68;;;11.00;99.90;;;;;;4958897;29;20015;-81
2024/02/03 12:45:55;;;;;;;3.85;1.33;;;11.00;99.90;;;;;;4958531;29;20055;-81